Time;durP1;ratioP1;P1;durP2;ratioP2;P2;SDS_P1;SDS_P2;PMS_P1;PMS_P2;Temp;Humidity;BMP_temperature;BMP_pressure;BME280_temperature;BME280_humidity;BME280_pressure;Samples;Min_cycle;Max_cycle;Signal;HPM_P1;HPM_P2
2022/08/13 00:01:41;;;;;;;6.53;2.90;;;14.10;99.90;;;;;;5051860;28;20021;-81
2022/08/13 00:04:09;;;;;;;6.00;2.92;;;14.00;99.90;;;;;;5051379;28;20040;-81
2022/08/13 00:09:09;;;;;;;4.30;2.95;;;13.90;99.90;;;;;;5051276;28;20040;-81
2022/08/13 00:14:23;;;;;;;4.47;2.90;;;13.80;99.90;;;;;;5048878;28;20130;-81
2022/08/13 00:16:51;;;;;;;4.57;2.80;;;13.80;99.90;;;;;;5051690;28;20104;-81
2022/08/13 00:19:19;;;;;;;5.05;3.28;;;13.80;99.90;;;;;;5051647;28;20086;-80
2022/08/13 00:21:46;;;;;;;4.32;3.05;;;13.80;99.90;;;;;;5052279;28;20017;-79
2022/08/13 00:24:12;;;;;;;4.72;2.95;;;13.80;99.90;;;;;;5051378;28;20043;-79
2022/08/13 00:26:37;;;;;;;4.45;3.05;;;13.80;99.90;;;;;;5052073;28;20348;-80
2022/08/13 00:29:03;;;;;;;4.05;3.03;;;13.80;99.90;;;;;;5051039;28;20013;-80
2022/08/13 00:31:31;;;;;;;6.30;3.17;;;13.80;99.90;;;;;;5051417;28;20520;-80
2022/08/13 00:33:58;;;;;;;3.90;3.10;;;13.80;99.90;;;;;;5051086;28;20373;-80
2022/08/13 00:36:23;;;;;;;7.70;3.58;;;13.80;99.90;;;;;;5033538;28;20437;-80
2022/08/13 00:38:53;;;;;;;5.53;3.28;;;13.80;99.90;;;;;;5050863;28;20025;-80
2022/08/13 00:41:38;;;;;;;6.18;3.25;;;13.90;99.90;;;;;;5051156;28;20048;-79
2022/08/13 00:44:05;;;;;;;7.38;3.03;;;13.80;99.90;;;;;;5050860;28;20033;-80
2022/08/13 00:46:32;;;;;;;4.97;2.80;;;13.90;99.90;;;;;;5050796;28;20033;-80
2022/08/13 00:48:58;;;;;;;4.28;2.60;;;13.80;99.90;;;;;;5050564;28;20078;-80
2022/08/13 00:51:26;;;;;;;6.68;3.17;;;13.80;99.90;;;;;;5032490;28;20033;-80
2022/08/13 00:53:54;;;;;;;5.25;3.00;;;13.90;99.90;;;;;;5050780;28;20029;-80
2022/08/13 00:56:22;;;;;;;5.72;3.05;;;13.90;99.90;;;;;;5050275;28;20045;-80
2022/08/13 00:58:49;;;;;;;5.47;3.10;;;13.90;99.90;;;;;;5050902;28;20435;-79
2022/08/13 01:01:15;;;;;;;4.32;3.00;;;13.90;99.90;;;;;;5049831;28;20037;-80
2022/08/13 01:03:42;;;;;;;3.10;2.80;;;13.90;99.90;;;;;;5050512;28;20044;-80
2022/08/13 01:06:09;;;;;;;6.65;3.15;;;14.00;99.90;;;;;;5032588;28;20120;-80
2022/08/13 01:08:40;;;;;;;5.20;2.85;;;14.00;99.90;;;;;;5050656;28;20028;-80
2022/08/13 01:11:08;;;;;;;5.13;3.17;;;14.00;99.90;;;;;;5032031;28;20036;-79
2022/08/13 01:13:36;;;;;;;4.50;2.83;;;14.00;99.90;;;;;;5045363;28;20082;-80
2022/08/13 01:16:05;;;;;;;4.25;3.08;;;14.00;99.90;;;;;;5050101;28;20024;-80
2022/08/13 01:18:31;;;;;;;8.15;3.05;;;14.00;99.90;;;;;;5049886;28;20035;-80
2022/08/13 01:21:04;;;;;;;5.78;3.22;;;14.00;99.90;;;;;;5050570;28;20025;-80
2022/08/13 01:23:30;;;;;;;6.72;3.00;;;14.00;99.90;;;;;;5032294;28;20033;-80
2022/08/13 01:25:59;;;;;;;6.10;3.28;;;14.00;99.90;;;;;;5050307;28;20033;-80
2022/08/13 01:28:28;;;;;;;7.05;3.08;;;14.00;99.90;;;;;;5050393;28;20069;-80
2022/08/13 01:30:57;;;;;;;3.95;2.85;;;14.00;99.90;;;;;;5050296;28;20036;-80
2022/08/13 01:33:24;;;;;;;4.25;3.03;;;14.00;99.90;;;;;;5050231;28;20131;-80
2022/08/13 01:35:52;;;;;;;4.10;3.00;;;14.00;99.90;;;;;;5050012;28;20389;-80
2022/08/13 01:38:20;;;;;;;4.35;3.22;;;14.00;99.90;;;;;;5050218;28;20533;-80
2022/08/13 01:40:47;;;;;;;4.45;3.00;;;14.00;99.90;;;;;;5050272;28;20033;-80
2022/08/13 01:43:13;;;;;;;3.70;3.15;;;14.00;99.90;;;;;;5050272;28;20064;-80
2022/08/13 01:45:43;;;;;;;3.60;2.80;;;14.00;99.90;;;;;;5050085;28;20036;-80
2022/08/13 01:50:53;;;;;;;4.78;3.10;;;14.00;99.90;;;;;;5050548;28;20495;-80
2022/08/13 01:53:19;;;;;;;3.38;3.03;;;13.90;99.90;;;;;;5050205;28;20025;-80
2022/08/13 01:55:48;;;;;;;5.55;3.55;;;13.90;99.90;;;;;;5049791;28;20041;-80
2022/08/13 01:58:22;;;;;;;4.53;3.10;;;13.90;99.90;;;;;;5032349;28;20033;-80
2022/08/13 02:00:52;;;;;;;5.53;3.45;;;13.90;99.90;;;;;;5049965;28;20033;-79
2022/08/13 02:03:19;;;;;;;4.63;3.50;;;13.90;99.90;;;;;;5050036;28;20033;-80
2022/08/13 02:05:47;;;;;;;7.43;3.17;;;13.90;99.90;;;;;;5049911;28;20029;-80
2022/08/13 02:08:14;;;;;;;5.18;3.47;;;13.90;99.90;;;;;;5049892;28;20626;-80
2022/08/13 02:10:43;;;;;;;3.70;3.20;;;13.90;99.90;;;;;;5049737;28;20040;-80
2022/08/13 02:13:16;;;;;;;5.82;3.35;;;13.90;99.90;;;;;;5044669;28;20037;-80
2022/08/13 02:15:44;;;;;;;6.78;4.18;;;13.80;99.90;;;;;;5051982;28;20441;-80
2022/08/13 02:18:17;;;;;;;6.15;4.82;;;13.80;99.90;;;;;;5053599;28;20029;-80
2022/08/13 02:20:44;;;;;;;9.15;4.97;;;13.80;99.90;;;;;;5053741;28;20048;-80
2022/08/13 02:23:16;;;;;;;6.82;5.60;;;13.70;99.90;;;;;;5053641;28;20112;-80
2022/08/13 02:25:45;;;;;;;8.20;5.60;;;13.70;99.90;;;;;;5035650;28;20527;-80
2022/08/13 02:28:12;;;;;;;7.47;5.20;;;13.70;99.90;;;;;;5053593;28;20045;-80
2022/08/13 02:30:38;;;;;;;9.88;5.10;;;13.60;99.90;;;;;;5053162;28;20100;-80
2022/08/13 02:33:05;;;;;;;6.78;5.07;;;13.60;99.90;;;;;;5053089;28;20450;-80
2022/08/13 02:35:35;;;;;;;5.95;4.32;;;13.60;99.90;;;;;;5053233;28;20029;-79
2022/08/13 02:38:02;;;;;;;6.30;4.90;;;13.50;99.90;;;;;;5053088;28;20033;-80
2022/08/13 02:43:12;;;;;;;5.25;4.47;;;13.50;99.90;;;;;;5053408;28;20374;-80
2022/08/13 02:45:39;;;;;;;4.88;4.18;;;13.40;99.90;;;;;;5052814;28;20025;-80
2022/08/13 02:48:08;;;;;;;7.68;4.63;;;13.40;99.90;;;;;;5053089;28;20371;-79
2022/08/13 02:50:42;;;;;;;5.32;4.10;;;13.30;99.90;;;;;;5052805;28;20048;-79
2022/08/13 02:53:09;;;;;;;5.35;3.33;;;13.30;99.90;;;;;;5053773;28;20057;-80
2022/08/13 02:55:35;;;;;;;5.53;3.80;;;13.20;99.90;;;;;;5053205;28;20056;-80
2022/08/13 02:58:01;;;;;;;9.00;4.55;;;13.10;99.90;;;;;;5053460;28;20028;-80
2022/08/13 03:00:26;;;;;;;4.15;3.75;;;13.10;99.90;;;;;;5053156;28;20035;-80
2022/08/13 03:02:53;;;;;;;3.80;3.38;;;13.00;99.90;;;;;;5052912;28;20466;-80
2022/08/13 03:05:19;;;;;;;6.10;3.80;;;13.00;99.90;;;;;;5053001;28;20100;-80
2022/08/13 03:07:47;;;;;;;6.93;3.28;;;12.90;99.90;;;;;;5052094;28;20048;-80
2022/08/13 03:10:15;;;;;;;5.20;4.10;;;12.90;99.90;;;;;;5034835;28;20032;-80
2022/08/13 03:12:45;;;;;;;5.97;3.45;;;12.90;99.90;;;;;;5046437;28;20029;-80
2022/08/13 03:15:13;;;;;;;3.88;3.47;;;12.90;99.90;;;;;;5052702;28;20096;-79
2022/08/13 03:17:40;;;;;;;4.53;3.63;;;12.80;99.90;;;;;;5052578;28;20439;-80
2022/08/13 03:20:10;;;;;;;9.63;3.70;;;12.80;99.90;;;;;;5052282;28;20036;-80
2022/08/13 03:22:53;;;;;;;6.28;3.72;;;12.80;99.90;;;;;;5034605;28;20057;-80
2022/08/13 03:25:21;;;;;;;9.32;4.03;;;12.80;99.90;;;;;;5051724;28;20017;-80
2022/08/13 03:27:47;;;;;;;5.05;3.42;;;12.80;99.90;;;;;;5052464;28;20116;-80
2022/08/13 03:30:16;;;;;;;5.80;3.75;;;12.70;99.90;;;;;;5052062;28;20037;-80
2022/08/13 03:32:46;;;;;;;7.15;3.95;;;12.70;99.90;;;;;;5052473;28;20025;-80
2022/08/13 03:35:14;;;;;;;4.60;3.70;;;12.70;99.90;;;;;;5052033;28;20025;-80
2022/08/13 03:37:42;;;;;;;5.05;3.20;;;12.70;99.90;;;;;;5051904;28;20031;-80
2022/08/13 03:40:08;;;;;;;6.78;3.80;;;12.60;99.90;;;;;;5052286;28;20025;-79
2022/08/13 03:42:35;;;;;;;4.60;3.70;;;12.60;99.90;;;;;;5052120;28;20382;-80
2022/08/13 03:45:02;;;;;;;4.38;3.83;;;12.60;99.90;;;;;;5052000;28;20057;-80
2022/08/13 03:47:28;;;;;;;5.43;3.75;;;12.50;99.90;;;;;;5051985;28;20024;-80
2022/08/13 03:49:54;;;;;;;6.22;3.92;;;12.50;99.90;;;;;;5052163;28;20032;-80
2022/08/13 03:52:20;;;;;;;4.50;3.60;;;12.50;99.90;;;;;;5051925;28;20075;-80
2022/08/13 03:54:46;;;;;;;4.57;3.38;;;12.40;99.90;;;;;;5051580;28;20096;-79
2022/08/13 03:57:12;;;;;;;11.05;4.55;;;12.50;99.90;;;;;;5052132;28;20032;-80
2022/08/13 03:59:40;;;;;;;6.45;3.90;;;12.40;99.90;;;;;;5051696;28;20059;-80
2022/08/13 04:02:06;;;;;;;5.38;3.70;;;12.40;99.90;;;;;;5051687;28;20021;-80
2022/08/13 04:04:32;;;;;;;5.45;3.63;;;12.30;99.90;;;;;;5051371;28;20021;-80
2022/08/13 04:06:59;;;;;;;5.18;3.70;;;12.30;99.90;;;;;;5051811;28;20090;-80
2022/08/13 04:09:24;;;;;;;5.20;3.42;;;12.30;99.90;;;;;;5051322;28;20013;-80
2022/08/13 04:11:50;;;;;;;5.35;3.65;;;12.30;99.90;;;;;;5048413;28;20794;-80
2022/08/13 04:14:15;;;;;;;5.03;4.00;;;12.30;99.90;;;;;;5047446;28;20033;-80
2022/08/13 04:16:41;;;;;;;5.13;4.15;;;12.30;99.90;;;;;;5051519;28;20095;-80
2022/08/13 04:19:08;;;;;;;6.20;3.83;;;12.30;99.90;;;;;;5051133;28;20103;-80
2022/08/13 04:21:35;;;;;;;5.45;3.95;;;12.30;99.90;;;;;;5051525;28;20108;-80
2022/08/13 04:24:04;;;;;;;5.20;3.92;;;12.30;99.90;;;;;;5033832;28;20062;-80
2022/08/13 04:26:32;;;;;;;6.15;4.32;;;12.30;99.90;;;;;;5051352;28;20071;-79
2022/08/13 04:29:02;;;;;;;5.05;3.80;;;12.40;99.90;;;;;;5051268;28;20541;-80
2022/08/13 04:31:28;;;;;;;6.85;4.32;;;12.40;99.90;;;;;;5052395;28;20032;-78
2022/08/13 04:33:54;;;;;;;9.95;4.03;;;12.40;99.90;;;;;;5052946;28;20025;-79
2022/08/13 04:36:19;;;;;;;5.38;3.83;;;12.40;99.90;;;;;;5052341;28;20028;-79
2022/08/13 04:38:45;;;;;;;5.75;3.83;;;12.40;99.90;;;;;;5044357;28;20022;-79
2022/08/13 04:41:10;;;;;;;5.20;3.95;;;12.50;99.90;;;;;;5048862;28;20025;-79
2022/08/13 04:43:36;;;;;;;6.80;3.80;;;12.50;99.90;;;;;;5046660;28;20100;-78
2022/08/13 04:46:02;;;;;;;5.45;3.42;;;12.60;99.90;;;;;;5034751;28;20083;-80
2022/08/13 04:48:31;;;;;;;6.30;3.75;;;12.60;99.90;;;;;;5043501;28;20044;-81
2022/08/13 04:50:57;;;;;;;7.30;3.88;;;12.60;99.90;;;;;;5052156;28;20028;-72
2022/08/13 04:53:28;;;;;;;3.78;3.05;;;12.70;99.90;;;;;;5053787;28;20096;-73
2022/08/13 04:55:55;;;;;;;6.75;3.45;;;12.70;99.90;;;;;;5053054;28;20045;-73
2022/08/13 04:58:23;;;;;;;5.78;3.45;;;12.70;99.90;;;;;;5053515;28;20021;-78
2022/08/13 05:00:50;;;;;;;6.72;3.53;;;12.80;99.90;;;;;;5051665;28;20021;-79
2022/08/13 05:03:18;;;;;;;5.07;3.92;;;12.80;99.90;;;;;;5050655;28;20512;-79
2022/08/13 05:05:46;;;;;;;7.32;3.97;;;12.90;99.90;;;;;;5050694;28;20033;-79
2022/08/13 05:08:15;;;;;;;4.90;3.60;;;13.00;99.90;;;;;;5022089;28;20052;-79
2022/08/13 05:10:41;;;;;;;4.80;3.72;;;13.20;99.90;;;;;;5050589;28;20108;-79
2022/08/13 05:13:29;;;;;;;5.32;3.97;;;13.30;99.90;;;;;;5044243;28;20025;-79
2022/08/13 05:15:56;;;;;;;4.88;3.63;;;13.40;99.90;;;;;;5047151;28;20105;-79
2022/08/13 05:18:23;;;;;;;6.50;3.72;;;13.50;99.90;;;;;;5050380;28;20112;-79
2022/08/13 05:20:54;;;;;;;4.60;4.05;;;13.60;99.90;;;;;;5050483;28;20037;-79
2022/08/13 05:23:21;;;;;;;6.18;3.78;;;13.70;99.90;;;;;;5050513;28;20032;-79
2022/08/13 05:25:48;;;;;;;5.50;3.45;;;13.80;99.90;;;;;;5050638;28;20082;-79
2022/08/13 05:28:15;;;;;;;6.38;3.80;;;13.90;99.90;;;;;;5050525;28;20478;-79
2022/08/13 05:30:40;;;;;;;5.97;3.63;;;14.00;99.90;;;;;;5050413;28;20018;-79
2022/08/13 05:33:14;;;;;;;6.13;3.47;;;14.10;99.90;;;;;;5050483;28;20060;-79
2022/08/13 05:35:44;;;;;;;4.35;3.35;;;14.20;99.90;;;;;;5050024;28;20104;-79
2022/08/13 05:38:10;;;;;;;5.18;3.78;;;14.30;99.90;;;;;;5050098;28;20424;-79
2022/08/13 05:40:38;;;;;;;5.95;3.78;;;14.40;99.90;;;;;;5050338;28;20231;-79
2022/08/13 05:43:14;;;;;;;4.95;3.70;;;14.40;99.90;;;;;;5050718;28;20013;-79
2022/08/13 05:45:47;;;;;;;3.50;3.20;;;14.40;99.90;;;;;;5049011;28;20032;-79
2022/08/13 05:48:13;;;;;;;4.53;3.28;;;14.50;99.90;;;;;;5050420;28;20485;-79
2022/08/13 05:50:38;;;;;;;7.95;4.07;;;14.50;99.90;;;;;;5053902;28;20017;-79
2022/08/13 05:53:08;;;;;;;7.25;3.60;;;14.60;99.90;;;;;;5053358;28;20104;-78
2022/08/13 05:55:35;;;;;;;5.65;3.28;;;14.70;99.90;;;;;;5053766;28;20064;-79
2022/08/13 05:58:01;;;;;;;5.80;3.55;;;14.80;99.90;;;;;;5053804;28;20025;-79
2022/08/13 06:03:27;;;;;;;7.30;3.83;;;15.10;99.90;;;;;;5053609;28;20039;-79
2022/08/13 06:05:58;;;;;;;6.85;3.70;;;15.20;99.90;;;;;;5042344;28;20033;-79
2022/08/13 06:08:29;;;;;;;4.97;3.30;;;15.30;99.90;;;;;;5053892;28;20029;-79
2022/08/13 06:11:05;;;;;;;5.07;3.03;;;15.40;99.90;;;;;;5053895;28;20489;-79
2022/08/13 06:13:33;;;;;;;4.53;2.90;;;15.50;99.90;;;;;;5047178;28;20029;-79
2022/08/13 06:16:00;;;;;;;3.72;3.10;;;15.60;99.90;;;;;;5053525;28;20025;-79
2022/08/13 06:18:29;;;;;;;3.65;2.63;;;15.80;99.90;;;;;;5036010;28;20417;-79
2022/08/13 06:20:56;;;;;;;4.25;3.08;;;15.90;99.90;;;;;;5054054;28;20021;-79
2022/08/13 06:23:24;;;;;;;5.35;3.53;;;16.00;99.90;;;;;;5053769;28;20071;-79
2022/08/13 06:25:52;;;;;;;7.88;4.00;;;16.10;99.90;;;;;;5053611;28;20029;-80
2022/08/13 06:28:25;;;;;;;5.72;3.35;;;16.20;99.90;;;;;;5053554;28;20461;-79
2022/08/13 06:30:53;;;;;;;6.50;3.20;;;16.40;99.90;;;;;;5054019;28;20021;-79
2022/08/13 06:33:22;;;;;;;7.43;3.63;;;16.40;99.90;;;;;;5053550;28;20029;-79
2022/08/13 06:35:52;;;;;;;7.32;4.00;;;16.50;99.90;;;;;;5053427;28;20363;-79
2022/08/13 06:38:20;;;;;;;5.63;4.15;;;16.50;99.90;;;;;;5053403;28;20078;-80
2022/08/13 06:40:47;;;;;;;8.90;3.60;;;16.60;99.90;;;;;;5053393;28;20025;-79
2022/08/13 06:43:16;;;;;;;5.93;3.78;;;16.60;99.90;;;;;;5049029;28;20574;-80
2022/08/13 06:45:42;;;;;;;10.52;4.05;;;16.70;99.90;;;;;;5053084;28;20021;-79
2022/08/13 06:48:09;;;;;;;6.28;3.58;;;16.80;99.90;;;;;;5053257;28;20798;-79
2022/08/13 06:50:35;;;;;;;4.55;3.28;;;16.80;99.90;;;;;;5053462;28;20025;-80
2022/08/13 06:53:06;;;;;;;6.68;3.83;;;16.90;99.90;;;;;;5052975;28;20090;-79
2022/08/13 06:55:36;;;;;;;6.70;3.40;;;16.90;99.90;;;;;;5052854;28;20094;-79
2022/08/13 06:58:10;;;;;;;5.63;3.63;;;16.80;99.90;;;;;;5052491;28;20039;-79
2022/08/13 07:00:39;;;;;;;4.50;3.50;;;16.90;99.90;;;;;;5051966;28;20152;-79
2022/08/13 07:03:09;;;;;;;6.75;4.20;;;17.00;99.90;;;;;;5052733;28;20048;-79
2022/08/13 07:05:40;;;;;;;4.30;3.65;;;17.10;99.90;;;;;;5052848;28;20142;-80
2022/08/13 07:08:08;;;;;;;5.30;3.95;;;17.30;99.90;;;;;;5050999;28;20048;-79
2022/08/13 07:10:35;;;;;;;6.13;3.60;;;17.40;99.90;;;;;;5034475;28;20110;-80
2022/08/13 07:13:02;;;;;;;7.75;3.70;;;17.50;99.90;;;;;;5046507;28;20021;-79
2022/08/13 07:15:29;;;;;;;8.25;3.60;;;17.60;99.90;;;;;;5034446;28;20488;-80
2022/08/13 07:17:56;;;;;;;4.22;3.42;;;17.70;99.90;;;;;;5052751;28;20029;-80
2022/08/13 07:20:23;;;;;;;5.78;3.60;;;17.70;99.90;;;;;;5052391;28;20385;-80
2022/08/13 07:22:48;;;;;;;6.05;3.72;;;17.80;99.90;;;;;;5052980;28;20032;-80
2022/08/13 07:25:14;;;;;;;8.35;3.97;;;17.80;99.90;;;;;;5052536;28;20035;-80
2022/08/13 07:27:41;;;;;;;4.25;3.85;;;17.70;99.90;;;;;;5052059;28;20398;-79
2022/08/13 07:30:08;;;;;;;6.32;3.90;;;17.70;99.90;;;;;;5052256;28;20032;-80
2022/08/13 07:32:38;;;;;;;5.45;3.67;;;17.70;99.90;;;;;;5050264;28;20033;-79
2022/08/13 07:35:05;;;;;;;6.18;3.65;;;17.70;99.90;;;;;;5052540;28;20041;-79
2022/08/13 07:37:30;;;;;;;4.72;3.50;;;17.70;99.90;;;;;;5051658;28;20533;-79
2022/08/13 07:39:59;;;;;;;4.18;3.10;;;17.80;99.90;;;;;;5052252;28;20033;-80
2022/08/13 07:42:26;;;;;;;7.13;3.78;;;18.00;99.90;;;;;;5052286;28;20017;-79
2022/08/13 07:44:53;;;;;;;5.55;3.38;;;18.10;99.90;;;;;;5042318;28;20028;-79
2022/08/13 07:47:21;;;;;;;5.10;3.45;;;18.30;99.90;;;;;;5051682;28;20043;-79
2022/08/13 07:49:48;;;;;;;5.70;3.15;;;18.40;99.90;;;;;;5051985;28;20029;-79
2022/08/13 07:52:14;;;;;;;10.23;3.45;;;18.50;99.90;;;;;;5051848;28;20033;-79
2022/08/13 07:54:42;;;;;;;3.25;2.95;;;18.60;99.90;;;;;;5052085;28;20016;-80
2022/08/13 07:57:10;;;;;;;5.75;2.90;;;18.70;99.90;;;;;;5051761;28;20533;-79
2022/08/13 07:59:36;;;;;;;4.72;3.22;;;18.70;99.90;;;;;;5052216;28;20432;-79
2022/08/13 08:02:05;;;;;;;6.15;3.00;;;18.80;99.90;;;;;;5052079;28;20058;-80
2022/08/13 08:04:34;;;;;;;5.00;2.78;;;18.90;99.90;;;;;;5033549;28;20532;-80
2022/08/13 08:07:01;;;;;;;3.95;2.42;;;18.90;99.90;;;;;;5042596;28;20363;-80
2022/08/13 08:09:29;;;;;;;4.10;2.83;;;19.00;99.90;;;;;;5051709;28;20370;-79
2022/08/13 08:14:42;;;;;;;4.82;2.60;;;19.10;99.90;;;;;;5051089;28;20109;-80
2022/08/13 08:17:09;;;;;;;4.22;2.38;;;19.20;99.90;;;;;;5051354;28;20099;-79
2022/08/13 08:19:37;;;;;;;9.10;2.60;;;19.30;99.90;;;;;;5051599;28;20054;-80
2022/08/13 08:22:04;;;;;;;3.58;2.10;;;19.40;99.90;;;;;;5051227;28;20029;-79
2022/08/13 08:24:32;;;;;;;4.22;2.60;;;19.60;99.90;;;;;;5051710;28;20021;-79
2022/08/13 08:27:10;;;;;;;2.80;2.13;;;19.60;99.90;;;;;;5051394;28;20033;-80
2022/08/13 08:29:38;;;;;;;3.97;2.05;;;19.70;99.90;;;;;;5051436;28;20470;-80
2022/08/13 08:32:05;;;;;;;5.50;2.50;;;19.80;99.90;;;;;;5051377;28;20025;-80
2022/08/13 08:34:31;;;;;;;5.00;2.38;;;20.00;99.90;;;;;;5051444;28;20051;-79
2022/08/13 08:36:57;;;;;;;4.30;2.50;;;20.00;99.90;;;;;;5051450;28;20064;-80
2022/08/13 08:44:41;;;;;;;5.30;2.58;;;20.40;99.90;;;;;;5051341;28;20435;-80
2022/08/13 08:47:07;;;;;;;3.33;2.17;;;20.40;99.90;;;;;;5050888;28;20112;-79
2022/08/13 08:49:33;;;;;;;6.55;2.53;;;20.50;99.90;;;;;;5051114;28;20100;-80
2022/08/13 08:52:02;;;;;;;6.07;2.17;;;20.60;99.90;;;;;;5051283;28;20029;-80
2022/08/13 08:54:31;;;;;;;4.03;1.95;;;20.70;99.90;;;;;;5050717;28;20454;-79
2022/08/13 08:56:57;;;;;;;6.43;2.15;;;20.90;99.90;;;;;;5050129;28;20079;-80
2022/08/13 08:59:28;;;;;;;7.43;1.90;;;21.10;99.90;;;;;;5050280;28;20078;-80
2022/08/13 09:01:56;;;;;;;8.18;2.00;;;21.30;99.90;;;;;;5051350;28;20051;-80
2022/08/13 09:04:28;;;;;;;5.05;2.00;;;21.40;99.90;;;;;;5050179;28;20059;-80
2022/08/13 09:06:57;;;;;;;5.87;1.90;;;21.60;99.90;;;;;;5050600;28;20500;-80
2022/08/13 09:09:24;;;;;;;5.15;2.00;;;21.80;99.90;;;;;;5050658;28;20086;-80
2022/08/13 09:11:55;;;;;;;4.03;1.98;;;21.90;99.90;;;;;;5046402;28;20025;-80
2022/08/13 09:14:26;;;;;;;3.70;2.15;;;22.00;99.90;;;;;;5049891;28;20028;-80
2022/08/13 09:16:53;;;;;;;6.32;2.33;;;22.20;99.90;;;;;;5032740;28;20033;-79
2022/08/13 09:19:19;;;;;;;4.22;2.05;;;22.30;99.90;;;;;;5050885;28;20021;-80
2022/08/13 09:21:46;;;;;;;4.85;2.03;;;22.40;99.90;;;;;;5051037;28;20352;-80
2022/08/13 09:24:15;;;;;;;3.92;2.00;;;22.60;99.90;;;;;;5050309;28;20029;-80
2022/08/13 09:26:45;;;;;;;2.90;1.88;;;22.80;99.90;;;;;;5050894;28;20021;-80
2022/08/13 09:29:18;;;;;;;5.90;2.25;;;23.10;99.90;;;;;;5050414;28;20510;-80
2022/08/13 09:31:45;;;;;;;3.53;1.85;;;23.40;99.90;;;;;;5050662;28;20028;-80
2022/08/13 09:34:11;;;;;;;2.33;1.77;;;23.50;99.90;;;;;;5050958;28;20017;-80
2022/08/13 09:36:38;;;;;;;4.88;1.92;;;23.70;99.90;;;;;;5050812;28;20373;-80
2022/08/13 09:39:05;;;;;;;2.78;1.75;;;24.00;99.90;;;;;;5050638;28;20028;-80
2022/08/13 09:41:42;;;;;;;6.18;2.03;;;24.10;99.90;;;;;;5050168;28;20025;-80
2022/08/13 09:44:08;;;;;;;5.13;2.20;;;24.30;99.90;;;;;;5050186;28;20021;-80
2022/08/13 09:46:35;;;;;;;5.18;1.85;;;24.50;99.90;;;;;;5050859;28;20093;-80
2022/08/13 09:49:03;;;;;;;5.15;2.35;;;24.60;99.90;;;;;;5048255;28;20037;-80
2022/08/13 09:51:32;;;;;;;8.18;2.10;;;24.70;99.90;;;;;;5047094;28;20466;-80
2022/08/13 09:53:58;;;;;;;8.57;2.17;;;24.80;99.90;;;;;;5047859;28;20029;-80
2022/08/13 09:56:23;;;;;;;7.28;2.10;;;25.10;99.90;;;;;;5050112;28;20041;-80
2022/08/13 09:58:50;;;;;;;5.60;2.10;;;25.20;99.90;;;;;;5050254;28;20115;-80
2022/08/13 10:01:19;;;;;;;5.40;2.03;;;25.40;99.90;;;;;;5050614;28;20032;-80
2022/08/13 10:03:48;;;;;;;4.25;2.50;;;25.50;99.90;;;;;;5023464;28;20057;-80
2022/08/13 10:06:18;;;;;;;3.67;2.22;;;25.50;99.90;;;;;;5050574;28;20024;-79
2022/08/13 10:08:47;;;;;;;3.22;1.92;;;25.60;99.90;;;;;;5050325;28;20062;-80
2022/08/13 10:11:15;;;;;;;3.00;2.20;;;25.60;99.90;;;;;;5049950;28;20028;-79
2022/08/13 10:13:42;;;;;;;6.38;2.50;;;25.60;99.90;;;;;;5048439;28;20021;-80
2022/08/13 10:16:07;;;;;;;5.07;2.03;;;25.70;99.90;;;;;;5050485;28;20104;-80
2022/08/13 10:18:33;;;;;;;4.45;2.08;;;25.70;99.90;;;;;;5050419;28;20096;-80
2022/08/13 10:20:59;;;;;;;3.70;2.10;;;25.60;99.90;;;;;;5050278;28;20037;-80
2022/08/13 10:23:24;;;;;;;9.93;2.50;;;25.60;99.90;;;;;;5049919;28;20037;-80
2022/08/13 10:25:52;;;;;;;5.07;2.20;;;25.50;99.90;;;;;;5049790;28;20025;-78
2022/08/13 10:28:23;;;;;;;5.38;2.70;;;25.50;99.90;;;;;;5050141;28;20044;-78
2022/08/13 10:30:50;;;;;;;5.43;2.00;;;25.60;99.90;;;;;;5049366;28;20119;-78
2022/08/13 10:33:16;;;;;;;4.97;1.80;;;25.90;99.90;;;;;;5049915;28;20618;-79
2022/08/13 10:35:44;;;;;;;2.33;1.95;;;26.00;99.90;;;;;;5051884;28;20049;-78
2022/08/13 10:38:17;;;;;;;6.00;2.03;;;26.10;99.90;;;;;;5053430;28;20025;-78
2022/08/13 10:40:43;;;;;;;4.95;2.30;;;26.20;99.90;;;;;;5053229;28;20481;-78
2022/08/13 10:43:10;;;;;;;5.25;2.58;;;26.40;99.90;;;;;;5053036;28;20036;-78
2022/08/13 10:45:37;;;;;;;10.88;2.10;;;26.50;99.90;;;;;;5053083;28;20074;-78
2022/08/13 10:48:09;;;;;;;2.53;1.70;;;26.70;99.90;;;;;;5053314;28;20036;-79
2022/08/13 10:50:35;;;;;;;4.97;2.28;;;26.90;99.40;;;;;;5053188;28;20041;-78
2022/08/13 10:53:00;;;;;;;4.05;1.90;;;26.90;99.40;;;;;;5052666;28;20118;-78
2022/08/13 10:55:27;;;;;;;3.78;2.10;;;26.80;99.60;;;;;;5052845;28;20049;-78
2022/08/13 10:57:53;;;;;;;3.03;1.67;;;26.80;99.90;;;;;;5052877;28;20021;-79
2022/08/13 11:00:21;;;;;;;6.00;2.15;;;27.10;98.40;;;;;;5053088;28;20031;-78
2022/08/13 11:02:49;;;;;;;3.10;1.90;;;27.20;98.00;;;;;;5052311;28;20025;-78
2022/08/13 11:05:16;;;;;;;6.82;2.20;;;27.20;97.80;;;;;;5052713;28;20480;-79
2022/08/13 11:07:48;;;;;;;4.60;2.50;;;27.10;97.80;;;;;;5052953;28;20033;-78
2022/08/13 11:10:14;;;;;;;2.95;1.90;;;27.00;96.70;;;;;;5052844;28;20029;-78
2022/08/13 11:12:50;;;;;;;5.05;2.13;;;26.70;95.80;;;;;;5048885;28;20117;-78
2022/08/13 11:15:24;;;;;;;4.82;1.90;;;26.40;95.80;;;;;;5049929;28;20017;-78
2022/08/13 11:17:53;;;;;;;;;;;26.10;96.20;;;;;;5052388;28;20511;-78
2022/08/13 11:20:20;;;;;;;2.17;1.85;;;25.70;96.70;;;;;;5052212;28;20621;-78
2022/08/13 11:22:49;;;;;;;4.55;2.33;;;25.40;96.80;;;;;;5051666;28;20025;-78
2022/08/13 11:25:15;;;;;;;3.15;2.00;;;25.30;97.10;;;;;;5052218;28;20089;-78
2022/08/13 11:27:40;;;;;;;2.88;2.10;;;25.20;98.00;;;;;;5052038;28;20033;-78
2022/08/13 11:30:07;;;;;;;3.35;2.10;;;25.30;98.10;;;;;;5052161;28;20505;-78
2022/08/13 11:32:33;;;;;;;2.50;2.00;;;25.60;96.80;;;;;;5052109;28;20036;-78
2022/08/13 11:34:58;;;;;;;3.92;1.77;;;25.90;95.50;;;;;;5052370;28;20033;-78
2022/08/13 11:37:24;;;;;;;3.90;2.00;;;26.20;97.70;;;;;;5052357;28;20025;-79
2022/08/13 11:39:49;;;;;;;3.25;1.60;;;26.60;97.70;;;;;;5052106;28;20025;-79
2022/08/13 11:42:15;;;;;;;3.95;1.88;;;26.90;96.50;;;;;;5051839;28;20686;-77
2022/08/13 11:44:40;;;;;;;5.40;1.80;;;27.00;95.70;;;;;;5052162;28;20543;-78
2022/08/13 11:47:06;;;;;;;3.72;1.63;;;27.10;95.10;;;;;;5051214;28;20614;-78
2022/08/13 11:49:32;;;;;;;3.13;1.70;;;26.90;92.20;;;;;;5051828;28;20464;-78
2022/08/13 11:51:57;;;;;;;4.20;1.58;;;26.80;92.40;;;;;;5051963;28;20025;-78
2022/08/13 11:54:24;;;;;;;4.68;1.70;;;27.00;92.80;;;;;;5051460;28;20027;-78
2022/08/13 11:56:50;;;;;;;4.53;1.77;;;27.10;93.50;;;;;;5051833;28;20048;-78
2022/08/13 11:59:16;;;;;;;3.15;1.85;;;27.10;93.00;;;;;;5051592;28;20044;-79
2022/08/13 12:01:41;;;;;;;2.00;1.70;;;27.10;92.10;;;;;;5051586;28;20025;-78
2022/08/13 12:04:07;;;;;;;2.08;1.80;;;27.00;92.90;;;;;;5051767;28;20036;-78
2022/08/13 12:06:33;;;;;;;5.10;1.70;;;26.90;92.30;;;;;;5051921;28;20710;-78
2022/08/13 12:08:58;;;;;;;2.55;1.75;;;27.00;92.30;;;;;;5051679;28;20646;-78
2022/08/13 12:11:24;;;;;;;9.18;2.33;;;26.90;93.50;;;;;;5049751;28;20032;-78
2022/08/13 12:13:49;;;;;;;4.18;1.80;;;26.90;93.10;;;;;;5046884;28;20111;-78
2022/08/13 12:16:15;;;;;;;4.45;1.75;;;27.00;92.20;;;;;;5051594;28;20032;-78
2022/08/13 12:18:40;;;;;;;2.42;1.70;;;26.90;92.50;;;;;;5051117;28;20025;-78
2022/08/13 12:21:06;;;;;;;2.63;1.80;;;26.90;90.20;;;;;;5033635;28;20028;-78
2022/08/13 12:23:32;;;;;;;3.63;1.80;;;26.80;91.10;;;;;;5051260;28;20021;-78
2022/08/13 12:25:57;;;;;;;4.95;1.98;;;26.70;90.90;;;;;;5051414;28;20473;-78
2022/08/13 12:28:26;;;;;;;7.38;1.67;;;26.80;90.90;;;;;;5050783;28;20162;-78
2022/08/13 12:31:03;;;;;;;7.15;2.25;;;26.90;91.00;;;;;;5051270;28;20106;-78
2022/08/13 12:33:30;;;;;;;5.30;2.03;;;27.10;90.40;;;;;;5050713;28;20021;-78
2022/08/13 12:35:56;;;;;;;5.45;2.13;;;27.00;90.60;;;;;;5051285;28;20497;-78
2022/08/13 12:38:22;;;;;;;2.63;1.40;;;27.00;88.20;;;;;;5051351;28;20035;-78
2022/08/13 12:40:48;;;;;;;3.72;1.50;;;27.00;87.40;;;;;;5032840;28;20397;-78
2022/08/13 12:43:14;;;;;;;1.90;1.50;;;26.90;88.80;;;;;;5051094;28;20029;-77
2022/08/13 12:45:42;;;;;;;8.25;2.03;;;26.80;86.90;;;;;;5050822;28;20071;-77
2022/08/13 12:48:11;;;;;;;3.22;1.55;;;26.60;89.30;;;;;;5051019;28;20029;-78
2022/08/13 12:50:38;;;;;;;2.08;1.45;;;26.40;88.20;;;;;;5050456;28;20354;-78
2022/08/13 12:53:05;;;;;;;3.65;1.52;;;26.40;90.50;;;;;;5050711;28;20021;-78
2022/08/13 12:55:38;;;;;;;5.47;1.45;;;26.30;89.90;;;;;;5050828;28;20037;-78
2022/08/13 12:58:17;;;;;;;2.97;2.10;;;26.30;90.30;;;;;;5036790;28;20024;-78
2022/08/13 13:00:44;;;;;;;3.67;1.92;;;26.20;90.50;;;;;;5050715;28;20029;-78
2022/08/13 13:03:10;;;;;;;2.20;1.75;;;26.10;90.90;;;;;;5050763;28;20482;-78
2022/08/13 13:05:36;;;;;;;3.88;1.80;;;26.10;90.20;;;;;;5032876;28;20036;-78
2022/08/13 13:08:20;;;;;;;3.05;1.70;;;25.90;90.90;;;;;;5050292;28;20361;-78
2022/08/13 13:10:46;;;;;;;3.35;1.40;;;25.90;91.80;;;;;;5050372;28;20116;-78
2022/08/13 13:13:14;;;;;;;3.25;1.48;;;25.80;90.10;;;;;;5042170;28;20025;-78